createdAt,value
2018-03-03T00:02:00.173Z,38.00
2018-03-03T00:04:27.630Z,39.83
2018-03-03T00:06:55.854Z,39.30
2018-03-03T00:09:24.081Z,38.53
2018-03-03T00:11:51.528Z,38.37
2018-03-03T00:14:18.985Z,40.83
2018-03-03T00:16:46.440Z,38.70
2018-03-03T00:19:13.903Z,39.20
2018-03-03T00:21:41.358Z,40.07
2018-03-03T00:24:08.811Z,40.80
2018-03-03T00:26:36.269Z,42.43
2018-03-03T00:29:03.732Z,42.40
2018-03-03T00:31:31.184Z,42.83
2018-03-03T00:33:58.644Z,46.40
2018-03-03T00:36:26.105Z,45.13
2018-03-03T00:38:53.563Z,44.13
2018-03-03T00:41:21.022Z,43.93
2018-03-03T00:43:48.473Z,44.27
2018-03-03T00:46:15.941Z,44.83
2018-03-03T00:48:43.396Z,43.50
2018-03-03T00:51:10.853Z,43.77
2018-03-03T00:53:38.301Z,41.97
2018-03-03T00:56:05.760Z,43.30
2018-03-03T00:58:33.216Z,42.67
2018-03-03T01:01:00.673Z,41.53
2018-03-03T01:03:28.129Z,41.70
2018-03-03T01:05:55.584Z,43.23
2018-03-03T01:08:23.037Z,44.43
2018-03-03T01:10:50.492Z,45.13
2018-03-03T01:13:17.956Z,42.87
2018-03-03T01:15:45.416Z,45.67
2018-03-03T01:18:13.636Z,43.47
2018-03-03T01:20:41.101Z,44.07
2018-03-03T01:23:08.552Z,42.87
2018-03-03T01:25:36.029Z,44.20
2018-03-03T01:28:03.481Z,43.80
2018-03-03T01:30:30.936Z,44.90
2018-03-03T01:32:58.388Z,44.53
2018-03-03T01:35:25.845Z,45.43
2018-03-03T01:37:53.296Z,44.50
2018-03-03T01:40:20.760Z,46.67
2018-03-03T01:42:48.216Z,44.77
2018-03-03T01:45:15.681Z,45.80
2018-03-03T01:47:43.128Z,42.73
2018-03-03T01:50:10.590Z,45.37
2018-03-03T01:52:38.055Z,45.80
2018-03-03T01:55:05.511Z,44.03
2018-03-03T01:57:32.964Z,45.27
2018-03-03T02:00:00.417Z,45.77
2018-03-03T02:02:27.889Z,47.17
2018-03-03T02:04:55.348Z,48.33
2018-03-03T02:07:22.875Z,44.40
2018-03-03T02:09:50.333Z,47.37
2018-03-03T02:12:17.799Z,46.87
2018-03-03T02:14:45.257Z,49.13
2018-03-03T02:17:12.719Z,47.13
2018-03-03T02:19:40.176Z,49.97
2018-03-03T02:22:07.640Z,48.20
2018-03-03T02:24:35.093Z,45.43
2018-03-03T02:27:02.551Z,49.90
2018-03-03T02:29:30.012Z,47.30
2018-03-03T02:31:58.238Z,48.67
2018-03-03T02:34:26.465Z,47.67
2018-03-03T02:36:53.932Z,46.70
2018-03-03T02:39:21.382Z,49.87
2018-03-03T02:41:48.838Z,47.90
2018-03-03T02:44:16.288Z,49.30
2018-03-03T02:46:43.744Z,49.90
2018-03-03T02:49:11.198Z,48.50
2018-03-03T02:51:38.657Z,46.03
2018-03-03T02:54:06.112Z,47.13
2018-03-03T02:56:33.568Z,46.63
2018-03-03T02:59:01.028Z,46.47
2018-03-03T03:01:28.485Z,46.87
2018-03-03T03:03:55.942Z,45.60
2018-03-03T03:06:23.405Z,47.07
2018-03-03T03:08:50.897Z,48.63
2018-03-03T03:11:19.116Z,49.57
2018-03-03T03:13:46.568Z,46.03
2018-03-03T03:16:14.020Z,47.33
2018-03-03T03:18:41.477Z,50.10
2018-03-03T03:21:08.933Z,48.77
2018-03-03T03:23:36.391Z,49.57
2018-03-03T03:26:03.843Z,48.93
2018-03-03T03:28:31.300Z,45.77
2018-03-03T03:30:58.758Z,48.90
2018-03-03T03:33:26.217Z,45.70
2018-03-03T03:35:53.664Z,45.57
2018-03-03T03:38:21.115Z,46.23
2018-03-03T03:40:48.578Z,46.33
2018-03-03T03:43:16.052Z,45.37
2018-03-03T03:45:43.500Z,45.80
2018-03-03T03:48:10.965Z,46.77
2018-03-03T03:50:38.421Z,45.47
2018-03-03T03:53:05.883Z,45.20
2018-03-03T03:55:33.340Z,45.60
2018-03-03T03:58:00.812Z,48.23
2018-03-03T04:00:28.269Z,45.40
2018-03-03T04:02:55.737Z,46.77
2018-03-03T04:05:23.196Z,47.13
2018-03-03T04:07:51.419Z,44.73
2018-03-03T04:10:18.885Z,47.90
2018-03-03T04:12:46.346Z,48.03
2018-03-03T04:15:13.801Z,45.80
2018-03-03T04:17:41.257Z,47.13
2018-03-03T04:20:08.712Z,49.00
2018-03-03T04:22:36.171Z,46.87
2018-03-03T04:25:03.624Z,48.37
2018-03-03T04:27:31.087Z,49.73
2018-03-03T04:29:58.535Z,47.87
2018-03-03T04:32:25.993Z,49.13
2018-03-03T04:34:53.444Z,46.90
2018-03-03T04:37:20.900Z,46.43
2018-03-03T04:39:48.361Z,44.93
2018-03-03T04:42:16.576Z,46.07
2018-03-03T04:44:44.792Z,45.47
2018-03-03T04:47:12.248Z,45.53
2018-03-03T04:49:39.705Z,45.83
2018-03-03T04:52:07.162Z,46.33
2018-03-03T04:54:34.616Z,47.50
2018-03-03T04:57:02.076Z,46.37
2018-03-03T04:59:35.125Z,47.87
2018-03-03T05:02:06.203Z,45.23
2018-03-03T05:04:35.234Z,47.27
2018-03-03T05:07:03.620Z,49.77
2018-03-03T05:09:31.080Z,47.77
2018-03-03T05:11:58.536Z,47.70
2018-03-03T05:14:31.782Z,46.63
2018-03-03T05:20:05.341Z,47.17
2018-03-03T05:22:38.599Z,46.13
2018-03-03T05:28:14.560Z,50.13
2018-03-03T05:30:57.821Z,50.40
2018-03-03T05:33:31.043Z,48.73
2018-03-03T05:39:07.098Z,46.27
2018-03-03T05:41:54.463Z,51.03
2018-03-03T05:44:27.541Z,48.73
2018-03-03T05:50:13.198Z,49.27
2018-03-03T05:52:47.758Z,47.70
2018-03-03T05:55:30.880Z,47.60
2018-03-03T06:01:14.445Z,45.93
2018-03-03T06:06:50.289Z,47.73
2018-03-03T06:09:29.395Z,47.57
2018-03-03T06:11:56.899Z,47.13
2018-03-03T06:14:24.391Z,48.93
2018-03-03T06:16:51.884Z,45.10
2018-03-03T06:19:19.368Z,44.27
2018-03-03T06:21:46.926Z,45.10
2018-03-03T06:24:14.414Z,45.37
2018-03-03T06:26:41.878Z,47.00
2018-03-03T06:29:09.352Z,47.43
2018-03-03T06:31:36.871Z,43.77
2018-03-03T06:34:04.393Z,45.00
2018-03-03T06:36:32.654Z,43.23
2018-03-03T06:39:00.134Z,41.33
2018-03-03T06:41:27.601Z,43.57
2018-03-03T06:43:55.075Z,43.60
2018-03-03T06:46:22.556Z,44.87
2018-03-03T06:48:50.086Z,45.87
2018-03-03T06:51:17.596Z,43.03
2018-03-03T06:53:45.171Z,46.47
2018-03-03T06:56:12.644Z,45.47
2018-03-03T06:58:40.198Z,44.40
2018-03-03T07:01:07.695Z,45.17
2018-03-03T07:03:35.973Z,44.93
2018-03-03T07:06:04.300Z,43.67
2018-03-03T07:08:32.546Z,45.40
2018-03-03T07:11:00.019Z,44.77
2018-03-03T07:13:27.578Z,44.07
2018-03-03T07:15:55.879Z,42.60
2018-03-03T07:18:24.118Z,45.13
2018-03-03T07:20:51.630Z,45.40
2018-03-03T07:23:19.118Z,55.57
2018-03-03T07:25:46.598Z,58.00
2018-03-03T07:28:14.104Z,62.80
2018-03-03T07:30:41.849Z,51.43
2018-03-03T07:33:09.323Z,48.00
2018-03-03T07:35:36.869Z,47.50
2018-03-03T07:38:04.350Z,44.23
2018-03-03T07:40:32.593Z,45.23
2018-03-03T07:43:00.882Z,43.77
2018-03-03T07:45:29.118Z,43.70
2018-03-03T07:47:56.642Z,42.37
2018-03-03T07:50:24.149Z,41.97
2018-03-03T07:52:52.390Z,43.57
2018-03-03T07:55:19.875Z,43.87
2018-03-03T07:57:47.347Z,44.70
2018-03-03T08:00:14.835Z,44.17
2018-03-03T08:02:42.311Z,44.67
2018-03-03T08:05:09.796Z,43.27
2018-03-03T08:07:37.275Z,42.97
2018-03-03T08:10:04.799Z,45.50
2018-03-03T08:12:33.868Z,42.60
2018-03-03T08:15:01.358Z,43.30
2018-03-03T08:17:28.962Z,45.13
2018-03-03T08:25:01.052Z,43.73
2018-03-03T08:27:29.518Z,43.93
2018-03-03T08:29:57.031Z,49.90
2018-03-03T08:32:24.934Z,47.53
2018-03-03T08:34:52.480Z,46.07
2018-03-03T08:37:20.788Z,43.40
2018-03-03T08:39:49.021Z,46.50
2018-03-03T08:42:16.545Z,49.03
2018-03-03T08:44:44.140Z,45.27
2018-03-03T08:47:11.738Z,45.60
2018-03-03T08:49:40.042Z,44.93
2018-03-03T08:52:07.516Z,44.97
2018-03-03T08:54:35.019Z,44.43
2018-03-03T08:57:02.586Z,43.37
2018-03-03T08:59:30.102Z,43.47
2018-03-03T09:01:57.674Z,43.27
2018-03-03T09:04:25.149Z,41.93
2018-03-03T09:06:52.753Z,43.97
2018-03-03T09:09:20.269Z,44.73
2018-03-03T09:11:48.514Z,44.87
2018-03-03T09:14:16.047Z,44.97
2018-03-03T09:16:43.610Z,44.23
2018-03-03T09:19:11.341Z,44.30
2018-03-03T09:21:39.021Z,46.70
2018-03-03T09:24:06.603Z,44.13
2018-03-03T09:26:34.158Z,45.53
2018-03-03T09:29:02.395Z,47.60
2018-03-03T09:31:29.944Z,47.17
2018-03-03T09:33:57.668Z,46.03
2018-03-03T09:36:25.145Z,47.03
2018-03-03T09:38:52.663Z,45.10
2018-03-03T09:41:20.975Z,43.80
2018-03-03T09:43:49.305Z,46.33
2018-03-03T09:46:17.546Z,45.33
2018-03-03T09:48:45.141Z,46.23
2018-03-03T09:51:12.741Z,47.73
2018-03-03T09:53:40.508Z,48.60
2018-03-03T09:56:08.019Z,46.33
2018-03-03T09:58:36.284Z,45.57
2018-03-03T10:01:03.806Z,47.77
2018-03-03T10:03:31.485Z,46.37
2018-03-03T10:05:58.953Z,46.37
2018-03-03T10:08:26.438Z,48.27
2018-03-03T10:10:53.933Z,46.20
2018-03-03T10:13:21.623Z,47.53
2018-03-03T10:15:49.111Z,47.27
2018-03-03T10:18:16.726Z,44.97
2018-03-03T10:20:45.886Z,46.97
2018-03-03T10:23:13.359Z,49.60
2018-03-03T10:25:41.649Z,51.90
2018-03-03T10:28:09.195Z,47.33
2018-03-03T10:30:36.842Z,47.70
2018-03-03T10:33:05.172Z,47.83
2018-03-03T10:35:33.395Z,49.73
2018-03-03T10:38:00.942Z,47.17
2018-03-03T10:40:29.299Z,48.20
2018-03-03T10:42:56.789Z,47.70
2018-03-03T10:45:24.316Z,48.90
2018-03-03T10:47:51.824Z,48.30
2018-03-03T10:50:19.292Z,49.73
2018-03-03T10:52:47.564Z,48.13
2018-03-03T10:55:15.051Z,50.10
2018-03-03T10:57:42.570Z,47.73
2018-03-03T11:00:10.100Z,47.67
2018-03-03T11:04:09.232Z,47.00
2018-03-03T11:06:37.636Z,48.80
2018-03-03T11:09:05.113Z,48.57
2018-03-03T11:11:32.694Z,47.20
2018-03-03T11:14:00.285Z,48.07
2018-03-03T11:16:27.780Z,47.67
2018-03-03T11:18:55.357Z,48.90
2018-03-03T11:21:22.854Z,46.83
2018-03-03T11:23:50.337Z,49.57
2018-03-03T11:26:17.830Z,49.30
2018-03-03T11:28:45.361Z,51.30
2018-03-03T11:31:13.587Z,49.83
2018-03-03T11:33:41.174Z,50.77
2018-03-03T11:36:08.641Z,50.47
2018-03-03T11:38:36.343Z,49.03
2018-03-03T11:41:04.621Z,49.37
2018-03-03T11:43:32.872Z,51.60
2018-03-03T11:46:00.344Z,50.97
2018-03-03T11:48:27.970Z,50.23
2018-03-03T11:50:55.478Z,50.93
2018-03-03T11:53:22.970Z,51.30
2018-03-03T11:55:50.433Z,54.10
2018-03-03T11:58:17.971Z,50.77
2018-03-03T12:00:45.445Z,51.77
2018-03-03T12:03:13.844Z,51.40
2018-03-03T12:05:42.086Z,55.40
2018-03-03T12:08:09.614Z,51.33
2018-03-03T12:10:37.098Z,50.73
2018-03-03T12:13:04.617Z,51.13
2018-03-03T12:15:32.120Z,50.47
2018-03-03T12:18:00.406Z,49.10
2018-03-03T12:20:27.916Z,54.40
2018-03-03T12:22:55.450Z,50.73
2018-03-03T12:25:23.614Z,55.33
2018-03-03T12:27:51.876Z,52.87
2018-03-03T12:30:19.374Z,52.73
2018-03-03T12:32:47.892Z,51.20
2018-03-03T12:35:15.422Z,51.87
2018-03-03T12:37:42.921Z,56.87
2018-03-03T12:40:10.443Z,52.13
2018-03-03T12:42:38.810Z,53.77
2018-03-03T12:45:06.807Z,49.20
2018-03-03T12:47:34.322Z,51.80
2018-03-03T12:50:02.636Z,50.47
2018-03-03T12:52:30.136Z,52.03
2018-03-03T12:54:57.607Z,53.10
2018-03-03T12:57:25.075Z,51.90
2018-03-03T12:59:52.602Z,51.27
2018-03-03T13:02:20.179Z,50.37
2018-03-03T13:04:47.668Z,52.17
2018-03-03T13:07:15.139Z,55.80
2018-03-03T13:09:42.648Z,50.40
2018-03-03T13:12:10.283Z,54.23
2018-03-03T13:14:37.766Z,50.83
2018-03-03T13:17:05.243Z,54.73
2018-03-03T13:19:33.485Z,53.27
2018-03-03T13:22:00.950Z,58.33
2018-03-03T13:24:28.415Z,56.03
2018-03-03T13:26:56.682Z,52.70
2018-03-03T13:29:24.149Z,57.60
2018-03-03T13:31:51.688Z,54.27
2018-03-03T13:34:19.152Z,51.90
2018-03-03T13:36:46.620Z,52.33
2018-03-03T13:39:14.151Z,54.97
2018-03-03T13:41:41.643Z,50.20
2018-03-03T13:44:09.150Z,49.40
2018-03-03T13:46:36.621Z,53.77
2018-03-03T13:49:04.088Z,52.40
2018-03-03T13:51:31.567Z,49.70
2018-03-03T13:53:59.797Z,50.23
2018-03-03T13:56:28.033Z,48.87
2018-03-03T13:58:55.526Z,49.53
2018-03-03T14:01:22.994Z,51.87
2018-03-03T14:03:50.522Z,51.00
2018-03-03T14:06:18.113Z,50.37
2018-03-03T14:08:45.778Z,53.20
2018-03-03T14:11:13.393Z,52.10
2018-03-03T14:13:41.512Z,50.33
2018-03-03T14:16:09.761Z,50.37
2018-03-03T14:18:37.232Z,47.37
2018-03-03T14:21:04.838Z,50.30
2018-03-03T14:23:32.353Z,49.43
2018-03-03T14:25:59.828Z,48.80
2018-03-03T14:28:28.180Z,50.17
2018-03-03T14:30:55.656Z,48.77
2018-03-03T14:33:23.537Z,47.27
2018-03-03T14:35:51.149Z,52.80
2018-03-03T14:38:18.762Z,52.10
2018-03-03T14:40:48.058Z,51.73
2018-03-03T14:43:15.610Z,51.40
2018-03-03T14:45:43.865Z,51.97
2018-03-03T14:48:11.345Z,50.20
2018-03-03T14:50:39.045Z,52.40
2018-03-03T14:53:07.310Z,50.40
2018-03-03T14:55:35.548Z,50.23
2018-03-03T14:58:03.039Z,51.23
2018-03-03T15:00:30.524Z,51.00
2018-03-03T15:02:58.048Z,54.17
2018-03-03T15:05:26.411Z,54.07
2018-03-03T15:07:53.885Z,52.27
2018-03-03T15:10:21.348Z,52.47
2018-03-03T15:12:48.880Z,55.13
2018-03-03T15:15:16.349Z,53.40
2018-03-03T15:17:43.829Z,50.10
2018-03-03T15:20:11.359Z,49.60
2018-03-03T15:22:39.626Z,49.47
2018-03-03T15:25:07.115Z,49.30
2018-03-03T15:27:34.610Z,51.63
2018-03-03T15:30:02.093Z,48.73
2018-03-03T15:32:29.589Z,47.77
2018-03-03T15:34:57.209Z,51.33
2018-03-03T15:37:25.445Z,50.27
2018-03-03T15:39:52.962Z,50.90
2018-03-03T15:42:20.435Z,49.03
2018-03-03T15:44:47.900Z,48.53
2018-03-03T15:47:16.139Z,50.47
2018-03-03T15:49:43.650Z,50.03
2018-03-03T15:52:11.565Z,50.87
2018-03-03T15:54:39.041Z,53.20
2018-03-03T15:57:06.532Z,52.17
2018-03-03T15:59:34.115Z,50.00
2018-03-03T16:02:01.617Z,49.77
2018-03-03T16:04:29.086Z,49.17
2018-03-03T16:06:56.606Z,46.20
2018-03-03T16:09:24.072Z,46.20
2018-03-03T16:11:51.551Z,53.40
2018-03-03T16:14:19.033Z,48.77
2018-03-03T16:16:46.533Z,45.70
2018-03-03T16:19:14.100Z,43.77
2018-03-03T16:21:41.722Z,45.53
2018-03-03T16:24:09.194Z,48.00
2018-03-03T16:26:36.692Z,43.60
2018-03-03T16:29:04.155Z,47.67
2018-03-03T16:31:34.943Z,47.70
2018-03-03T16:34:02.420Z,49.40
2018-03-03T16:36:29.913Z,49.67
2018-03-03T16:38:57.482Z,47.30
2018-03-03T16:41:25.050Z,45.77
2018-03-03T16:43:53.288Z,49.90
2018-03-03T16:46:20.759Z,49.03
2018-03-03T16:48:48.251Z,56.13
2018-03-03T16:51:15.722Z,54.73
2018-03-03T16:53:43.221Z,52.57
2018-03-03T16:56:10.694Z,51.47
2018-03-03T16:58:38.162Z,47.80
2018-03-03T17:01:05.624Z,51.40
2018-03-03T17:03:33.892Z,50.07
2018-03-03T17:06:01.370Z,51.20
2018-03-03T17:08:28.930Z,48.83
2018-03-03T17:10:57.156Z,60.20
2018-03-03T17:13:25.593Z,55.83
2018-03-03T17:15:53.078Z,56.77
2018-03-03T17:18:20.553Z,56.27
2018-03-03T17:20:48.036Z,57.37
2018-03-03T17:23:15.529Z,57.20
2018-03-03T17:25:42.998Z,97.17
2018-03-03T17:28:11.548Z,87.80
2018-03-03T17:30:40.538Z,65.83
2018-03-03T17:33:08.018Z,56.93
2018-03-03T17:35:35.517Z,57.23
2018-03-03T17:38:03.135Z,56.33
2018-03-03T17:40:30.689Z,52.30
2018-03-03T17:42:58.210Z,55.70
2018-03-03T17:45:26.472Z,57.57
2018-03-03T17:47:53.957Z,53.67
2018-03-03T17:50:21.434Z,57.03
2018-03-03T17:52:48.962Z,55.03
2018-03-03T17:55:16.470Z,54.93
2018-03-03T17:57:44.739Z,57.63
2018-03-03T18:00:12.996Z,57.87
2018-03-03T18:02:43.046Z,59.63
2018-03-03T18:05:13.085Z,58.10
2018-03-03T18:07:44.478Z,60.60
2018-03-03T18:10:13.706Z,61.43
2018-03-03T18:12:41.438Z,60.53
2018-03-03T18:15:09.804Z,62.83
2018-03-03T18:17:37.285Z,60.63
2018-03-03T18:20:05.531Z,63.87
2018-03-03T18:22:33.033Z,58.10
2018-03-03T18:25:00.521Z,64.47
2018-03-03T18:27:28.011Z,62.63
2018-03-03T18:29:55.503Z,57.87
2018-03-03T18:32:23.014Z,56.97
2018-03-03T18:34:51.289Z,58.73
2018-03-03T18:37:18.808Z,59.77
2018-03-03T18:39:46.294Z,60.00
2018-03-03T18:42:13.773Z,58.97
2018-03-03T18:44:41.314Z,62.40
2018-03-03T18:47:09.554Z,61.37
2018-03-03T18:49:37.121Z,56.57
2018-03-03T18:52:04.609Z,58.27
2018-03-03T18:54:32.078Z,57.43
2018-03-03T18:56:59.565Z,60.40
2018-03-03T18:59:27.095Z,59.60
2018-03-03T19:01:54.567Z,59.70
2018-03-03T19:04:22.070Z,57.63
2018-03-03T19:06:49.630Z,56.73
2018-03-03T19:09:17.110Z,58.23
2018-03-03T19:11:44.601Z,55.90
2018-03-03T19:14:12.084Z,57.80
2018-03-03T19:16:39.609Z,56.53
2018-03-03T19:19:07.910Z,56.10
2018-03-03T19:21:35.426Z,58.20
2018-03-03T19:24:03.726Z,64.63
2018-03-03T19:26:31.223Z,60.27
2018-03-03T19:28:59.468Z,64.90
2018-03-03T19:31:26.955Z,63.80
2018-03-03T19:33:54.441Z,62.37
2018-03-03T19:36:22.692Z,60.67
2018-03-03T19:38:50.175Z,60.90
2018-03-03T19:41:17.750Z,61.03
2018-03-03T19:43:46.010Z,63.43
2018-03-03T19:46:13.504Z,59.47
2018-03-03T19:48:41.022Z,60.87
2018-03-03T19:51:09.309Z,61.67
2018-03-03T19:53:37.607Z,59.50
2018-03-03T19:56:05.125Z,63.23
2018-03-03T19:58:32.609Z,62.57
2018-03-03T20:01:00.092Z,63.23
2018-03-03T20:03:27.632Z,59.67
2018-03-03T20:05:56.640Z,60.17
2018-03-03T20:08:24.239Z,62.83
2018-03-03T20:14:23.271Z,58.90
2018-03-03T20:16:50.796Z,62.83
2018-03-03T20:19:18.282Z,60.97
2018-03-03T20:21:45.909Z,58.80
2018-03-03T20:24:13.414Z,58.10
2018-03-03T20:26:40.912Z,58.30
2018-03-03T20:29:08.415Z,56.17
2018-03-03T20:31:35.913Z,59.37
2018-03-03T20:34:03.403Z,54.83
2018-03-03T20:36:30.890Z,54.73
2018-03-03T20:38:58.388Z,57.93
2018-03-03T20:41:26.630Z,52.03
2018-03-03T20:43:54.106Z,53.37
2018-03-03T20:46:21.633Z,54.00
2018-03-03T20:48:49.111Z,59.43
2018-03-03T20:51:16.610Z,58.43
2018-03-03T20:53:44.131Z,54.37
2018-03-03T20:56:12.387Z,60.40
2018-03-03T20:58:39.863Z,62.10
2018-03-03T21:01:07.435Z,61.00
2018-03-03T21:03:34.962Z,59.17
2018-03-03T21:06:02.450Z,63.63
2018-03-03T21:08:30.045Z,59.53
2018-03-03T21:10:57.518Z,59.57
2018-03-03T21:13:25.220Z,59.57
2018-03-03T21:15:52.689Z,59.43
2018-03-03T21:18:20.160Z,64.03
2018-03-03T21:20:47.674Z,62.17
2018-03-03T21:23:15.254Z,60.60
2018-03-03T21:25:42.744Z,61.50
2018-03-03T21:28:10.221Z,61.83
2018-03-03T21:30:37.720Z,56.57
2018-03-03T21:33:05.209Z,61.50
2018-03-03T21:35:32.711Z,57.57
2018-03-03T21:38:00.218Z,57.33
2018-03-03T21:40:27.794Z,59.23
2018-03-03T21:42:55.370Z,58.17
2018-03-03T21:45:22.886Z,59.90
2018-03-03T21:47:50.369Z,59.47
2018-03-03T21:50:17.859Z,56.97
2018-03-03T21:52:45.335Z,58.00
2018-03-03T21:55:13.574Z,57.97
2018-03-03T21:57:41.052Z,57.23
2018-03-03T22:00:08.536Z,59.80
2018-03-03T22:02:36.017Z,59.80
2018-03-03T22:05:03.500Z,57.80
2018-03-03T22:07:30.966Z,59.60
2018-03-03T22:09:58.451Z,57.17
2018-03-03T22:12:25.962Z,58.50
2018-03-03T22:14:53.454Z,60.83
2018-03-03T22:17:20.953Z,63.00
2018-03-03T22:19:49.930Z,63.20
2018-03-03T22:22:17.440Z,66.67
2018-03-03T22:24:44.924Z,66.37
2018-03-03T22:27:12.457Z,70.97
2018-03-03T22:29:39.988Z,61.93
2018-03-03T22:32:07.458Z,60.20
2018-03-03T22:34:34.956Z,61.30
2018-03-03T22:37:02.541Z,61.37
2018-03-03T22:39:30.013Z,61.07
2018-03-03T22:41:57.513Z,61.53
2018-03-03T22:44:25.145Z,58.47
2018-03-03T22:46:53.457Z,58.03
2018-03-03T22:49:21.693Z,58.83
2018-03-03T22:51:49.163Z,59.37
2018-03-03T22:54:16.642Z,59.33
2018-03-03T22:56:44.129Z,56.13
2018-03-03T22:59:11.616Z,58.53
2018-03-03T23:01:39.101Z,60.63
2018-03-03T23:04:06.595Z,69.00
2018-03-03T23:06:34.187Z,63.97
2018-03-03T23:09:01.778Z,66.27
2018-03-03T23:11:29.280Z,63.20
2018-03-03T23:13:56.851Z,59.90
2018-03-03T23:16:24.325Z,59.90
2018-03-03T23:18:51.804Z,60.10
2018-03-03T23:21:19.277Z,61.07
2018-03-03T23:23:46.797Z,59.10
2018-03-03T23:26:14.384Z,59.73
2018-03-03T23:28:41.885Z,59.00
2018-03-03T23:31:09.361Z,55.73
2018-03-03T23:33:37.633Z,60.93
2018-03-03T23:36:05.119Z,58.10
2018-03-03T23:38:32.589Z,56.07
2018-03-03T23:41:00.086Z,59.33
2018-03-03T23:43:27.608Z,55.60
2018-03-03T23:45:55.084Z,55.60
2018-03-03T23:48:22.589Z,59.93
2018-03-03T23:50:50.070Z,62.23
2018-03-03T23:53:17.545Z,61.30
2018-03-03T23:55:45.016Z,60.97
2018-03-03T23:58:12.524Z,60.97
